WXM80 ListenWXM80 Stop

You find our weather info also at:

UK Metoffice

WeatherCloud

Weather Underground

Northeastern Weather Network

AWEKAS

Citizen Weather Observer Program (CWOP)

HAMweather, WeatherForYou, PWS Weather


Weather Underground History page Text

Daily Summary for March 6, 2016 Units:  English    Metric   Both
« Previous Day
Next Day »
Daily Weekly Monthly Yearly Custom
  High: Low: Average:
Temperature: 46.3 °F 29.1 °F 36.6 °F
Dew Point: 29.3 °F 19.1 °F 23.1 °F
Humidity: 81 % 41 % 60 %
Wind Speed: 6.6 mph 0.0 mph 1.8 mph
Wind Gust: 10.4 mph - -
Wind:- - SSE
Pressure: 30.29 in 30.19 in -
Precipitation: 0.00 in    
Historical Graphs
 
 
Tabular Data for March 6, 2016
Time Temperature Dew Point Pressure Wind Wind Speed Wind Gust Humidity Rainfall Rate (Hourly)
00:00 29.5 °F 23.8 °F 30.19 in Calm   1.2 mph 79 % 0.00 in
00:05 29.5 °F 24.1 °F 30.20 in SSW 1.3 mph 2.3 mph 80 % 0.00 in
00:10 29.6 °F 24.2 °F 30.19 in Calm     80 % 0.00 in
00:15 29.6 °F 24.5 °F 30.19 in SSW 0.1 mph 1.2 mph 81 % 0.00 in
00:21 29.6 °F 24.2 °F 30.19 in SSW 0.1 mph 1.2 mph 80 % 0.00 in
00:26 29.6 °F 24.2 °F 30.20 in SSW 0.6 mph 1.2 mph 80 % 0.00 in
00:31 29.5 °F 24.1 °F 30.20 in SSW 0.1 mph 1.2 mph 80 % 0.00 in
00:36 29.4 °F 24.0 °F 30.20 in Calm     80 % 0.00 in
00:41 29.4 °F 24.0 °F 30.20 in Calm     80 % 0.00 in
00:46 29.3 °F 23.9 °F 30.20 in Calm     80 % 0.00 in
00:51 29.2 °F 23.8 °F 30.20 in Calm   1.0 mph 80 % 0.00 in
00:56 29.2 °F 24.1 °F 30.20 in Calm     81 % 0.00 in
01:01 29.1 °F 24.0 °F 30.20 in Calm     81 % 0.00 in
01:06 29.1 °F 23.7 °F 30.20 in Calm     80 % 0.00 in
01:12 29.1 °F 24.0 °F 30.21 in SSW 0.1 mph 1.2 mph 81 % 0.00 in
01:17 29.1 °F 24.0 °F 30.21 in Calm     81 % 0.00 in
01:22 29.2 °F 23.8 °F 30.22 in Calm     80 % 0.00 in
01:27 29.2 °F 23.8 °F 30.22 in Calm     80 % 0.00 in
01:32 29.3 °F 23.9 °F 30.22 in Calm     80 % 0.00 in
01:37 29.4 °F 24.0 °F 30.21 in Calm     80 % 0.00 in
01:42 29.4 °F 24.0 °F 30.21 in Calm     80 % 0.00 in
01:52 29.5 °F 23.8 °F 30.21 in Calm     79 % 0.00 in
01:57 29.5 °F 23.8 °F 30.22 in Calm     79 % 0.00 in
02:03 29.6 °F 23.6 °F 30.21 in Calm   1.2 mph 78 % 0.00 in
02:08 29.6 °F 23.3 °F 30.21 in Calm     77 % 0.00 in
02:13 29.6 °F 23.3 °F 30.21 in Calm     77 % 0.00 in
02:18 29.7 °F 23.4 °F 30.20 in Calm     77 % 0.00 in
02:23 29.7 °F 23.1 °F 30.20 in Calm     76 % 0.00 in
02:28 29.7 °F 22.7 °F 30.20 in SSW 0.3 mph 1.2 mph 75 % 0.00 in
02:33 29.7 °F 22.4 °F 30.20 in Calm     74 % 0.00 in
02:38 29.6 °F 22.3 °F 30.20 in SSW 0.3 mph 1.2 mph 74 % 0.00 in
02:43 29.5 °F 22.6 °F 30.20 in Calm     75 % 0.00 in
02:48 29.5 °F 22.6 °F 30.21 in Calm     75 % 0.00 in
02:54 29.4 °F 22.1 °F 30.20 in Calm     74 % 0.00 in
02:59 29.3 °F 22.0 °F 30.21 in Calm     74 % 0.00 in
03:04 29.3 °F 22.0 °F 30.20 in SSW 2.4 mph 3.5 mph 74 % 0.00 in
03:09 29.4 °F 21.5 °F 30.20 in NNE 1.0 mph 3.5 mph 72 % 0.00 in
03:14 29.3 °F 21.7 °F 30.20 in Calm   1.2 mph 73 % 0.00 in
03:19 29.3 °F 22.0 °F 30.20 in Calm     74 % 0.00 in
03:24 29.2 °F 21.9 °F 30.20 in Calm     74 % 0.00 in
03:29 29.2 °F 21.9 °F 30.21 in Calm     74 % 0.00 in
03:34 29.2 °F 21.6 °F 30.21 in NNE 0.1 mph 3.5 mph 73 % 0.00 in
03:39 29.3 °F 21.7 °F 30.21 in ENE 0.4 mph 2.3 mph 73 % 0.00 in
03:45 29.3 °F 21.7 °F 30.20 in NNE 0.1 mph 2.3 mph 73 % 0.00 in
03:50 29.4 °F 21.8 °F 30.20 in NNE 3.0 mph 3.5 mph 73 % 0.00 in
03:55 29.4 °F 21.2 °F 30.20 in NNE 1.7 mph 4.0 mph 71 % 0.00 in
04:00 29.5 °F 20.9 °F 30.20 in NNE 4.1 mph 4.6 mph 70 % 0.00 in
04:05 29.8 °F 20.9 °F 30.21 in NE 1.5 mph 3.5 mph 69 % 0.00 in
04:10 30.0 °F 21.4 °F 30.21 in NE 1.7 mph 3.5 mph 70 % 0.00 in
04:15 30.3 °F 21.0 °F 30.21 in NE 1.7 mph 3.5 mph 68 % 0.00 in
04:20 30.5 °F 21.2 °F 30.21 in NE 0.7 mph 3.5 mph 68 % 0.00 in
04:25 30.7 °F 21.4 °F 30.20 in ENE 1.2 mph 2.0 mph 68 % 0.00 in
04:30 30.9 °F 21.2 °F 30.21 in ENE 1.4 mph 3.5 mph 67 % 0.00 in
04:36 31.0 °F 21.0 °F 30.21 in ENE 1.6 mph 2.3 mph 66 % 0.00 in
04:41 31.1 °F 21.1 °F 30.21 in NE 0.9 mph 3.5 mph 66 % 0.00 in
04:46 31.4 °F 21.0 °F 30.21 in NNE 0.7 mph 2.3 mph 65 % 0.00 in
04:51 31.5 °F 20.7 °F 30.21 in ENE 1.2 mph 3.5 mph 64 % 0.00 in
04:56 31.6 °F 20.8 °F 30.22 in NE 1.5 mph 3.5 mph 64 % 0.00 in
05:01 31.7 °F 20.5 °F 30.21 in NE 1.5 mph 2.3 mph 63 % 0.00 in
05:06 31.7 °F 20.9 °F 30.21 in NNE 1.9 mph 3.5 mph 64 % 0.00 in
05:11 31.8 °F 20.6 °F 30.21 in NNE 1.4 mph 4.6 mph 63 % 0.00 in
05:16 31.9 °F 20.7 °F 30.21 in NNE 2.1 mph 3.5 mph 63 % 0.00 in
05:21 31.9 °F 20.7 °F 30.22 in NE 3.4 mph 3.5 mph 63 % 0.00 in
05:27 31.9 °F 20.7 °F 30.22 in NNE 2.7 mph 4.0 mph 63 % 0.00 in
05:32 32.0 °F 20.8 °F 30.22 in NNE 4.3 mph 6.9 mph 63 % 0.00 in
05:37 32.1 °F 20.9 °F 30.22 in NNE 4.1 mph 5.8 mph 63 % 0.00 in
05:42 32.1 °F 20.9 °F 30.22 in NNE 4.0 mph 6.0 mph 63 % 0.00 in
05:47 32.3 °F 20.7 °F 30.23 in NNE 3.0 mph 5.0 mph 62 % 0.00 in
05:52 32.4 °F 21.2 °F 30.23 in NNE 4.6 mph 8.0 mph 63 % 0.00 in
05:57 32.4 °F 20.4 °F 30.24 in NNE 4.3 mph 8.1 mph 61 % 0.00 in
06:02 32.5 °F 20.1 °F 30.24 in NNE 5.0 mph 8.1 mph 60 % 0.00 in
06:07 32.6 °F 20.2 °F 30.24 in NNE 2.9 mph 4.6 mph 60 % 0.00 in
06:12 32.7 °F 20.7 °F 30.24 in NNE 3.4 mph 5.8 mph 61 % 0.00 in
06:18 32.7 °F 20.3 °F 30.24 in NNE 4.7 mph 8.1 mph 60 % 0.00 in
06:23 32.7 °F 19.9 °F 30.24 in NNE 2.8 mph 3.5 mph 59 % 0.00 in
06:28 32.6 °F 19.8 °F 30.24 in NNE 2.1 mph 4.6 mph 59 % 0.00 in
06:33 32.7 °F 19.9 °F 30.24 in NE 2.4 mph 3.5 mph 59 % 0.00 in
06:38 32.6 °F 20.2 °F 30.24 in ENE 0.8 mph 3.5 mph 60 % 0.00 in
06:43 32.6 °F 20.6 °F 30.24 in NNE 4.0 mph 4.6 mph 61 % 0.00 in
06:53 32.7 °F 20.3 °F 30.25 in NNE 2.9 mph 5.0 mph 60 % 0.00 in
06:58 32.8 °F 20.4 °F 30.25 in North 3.5 mph 4.6 mph 60 % 0.00 in
07:04 32.9 °F 20.5 °F 30.25 in NNE 2.9 mph 4.6 mph 60 % 0.00 in
07:09 32.9 °F 20.1 °F 30.25 in NNE 2.9 mph 4.6 mph 59 % 0.00 in
07:14 33.0 °F 20.2 °F 30.25 in NNE 2.1 mph 4.6 mph 59 % 0.00 in
07:19 33.0 °F 20.2 °F 30.25 in NE 1.8 mph 3.5 mph 59 % 0.00 in
07:24 33.1 °F 19.9 °F 30.25 in NNE 2.8 mph 5.8 mph 58 % 0.00 in
07:29 33.2 °F 20.0 °F 30.26 in NE 3.3 mph 5.8 mph 58 % 0.00 in
07:34 33.4 °F 20.2 °F 30.25 in NNE 2.8 mph 5.0 mph 58 % 0.00 in
07:39 33.5 °F 20.7 °F 30.26 in NE 2.3 mph 3.5 mph 59 % 0.00 in
07:44 33.7 °F 20.9 °F 30.26 in ENE 2.0 mph 4.6 mph 59 % 0.00 in
07:55 34.1 °F 20.4 °F 30.27 in ENE 2.8 mph 4.6 mph 57 % 0.00 in
08:00 34.4 °F 20.3 °F 30.27 in ENE 4.0 mph 8.1 mph 56 % 0.00 in
08:05 34.8 °F 20.3 °F 30.27 in ENE 4.6 mph 7.0 mph 55 % 0.00 in
08:10 35.0 °F 19.1 °F 30.27 in NE 1.9 mph 9.2 mph 52 % 0.00 in
08:15 35.4 °F 19.9 °F 30.27 in ENE 3.8 mph 5.0 mph 53 % 0.00 in
08:20 35.7 °F 19.8 °F 30.27 in East 3.4 mph 5.0 mph 52 % 0.00 in
08:25 36.1 °F 20.2 °F 30.28 in NE 3.5 mph 5.8 mph 52 % 0.00 in
08:30 36.4 °F 20.4 °F 30.28 in NNE 3.1 mph 5.0 mph 52 % 0.00 in
08:35 36.9 °F 20.9 °F 30.28 in NNE 3.1 mph 6.9 mph 52 % 0.00 in
08:40 37.4 °F 21.4 °F 30.28 in NNE 2.7 mph 4.6 mph 52 % 0.00 in
08:46 37.9 °F 21.8 °F 30.28 in NNE 2.6 mph 4.0 mph 52 % 0.00 in
08:51 37.9 °F 21.4 °F 30.29 in NNE 1.4 mph 3.5 mph 51 % 0.00 in
08:56 38.0 °F 21.9 °F 30.28 in NNE 1.6 mph 3.5 mph 52 % 0.00 in
09:01 38.0 °F 22.4 °F 30.28 in ENE 1.0 mph 3.0 mph 53 % 0.00 in
09:06 38.3 °F 22.2 °F 30.28 in North 3.4 mph 5.8 mph 52 % 0.00 in
09:11 38.5 °F 21.9 °F 30.28 in ENE 3.9 mph 4.6 mph 51 % 0.00 in
09:16 38.7 °F 21.6 °F 30.29 in NNE 2.9 mph 6.9 mph 50 % 0.00 in
09:21 38.7 °F 21.2 °F 30.29 in NNE 2.1 mph 3.5 mph 49 % 0.00 in
09:26 38.8 °F 21.3 °F 30.29 in North 2.6 mph 3.5 mph 49 % 0.00 in
09:31 38.6 °F 21.5 °F 30.29 in NE 1.7 mph 5.8 mph 50 % 0.00 in
09:37 38.5 °F 21.0 °F 30.29 in NE 2.6 mph 4.0 mph 49 % 0.00 in
09:42 38.4 °F 21.4 °F 30.29 in NE 3.1 mph 4.6 mph 50 % 0.00 in
09:47 38.6 °F 22.5 °F 30.29 in NNE 2.1 mph 3.5 mph 52 % 0.00 in
09:52 38.9 °F 21.8 °F 30.29 in NE 2.0 mph 4.0 mph 50 % 0.00 in
09:57 38.9 °F 21.3 °F 30.29 in NNE 3.6 mph 4.6 mph 49 % 0.00 in
10:02 39.0 °F 21.4 °F 30.29 in North 3.4 mph 4.6 mph 49 % 0.00 in
10:07 38.9 °F 20.9 °F 30.29 in NNE 4.1 mph 6.0 mph 48 % 0.00 in
10:12 38.9 °F 21.3 °F 30.29 in NNE 3.4 mph 4.0 mph 49 % 0.00 in
10:17 38.9 °F 22.3 °F 30.29 in ENE 1.8 mph 4.6 mph 51 % 0.00 in
10:22 39.1 °F 21.5 °F 30.29 in NNW 2.7 mph 5.8 mph 49 % 0.00 in
10:28 39.3 °F 22.7 °F 30.29 in ENE 2.5 mph 3.5 mph 51 % 0.00 in
10:33 39.4 °F 21.8 °F 30.29 in ENE 2.5 mph 4.0 mph 49 % 0.00 in
10:38 39.6 °F 22.5 °F 30.29 in NE 2.4 mph 4.6 mph 50 % 0.00 in
10:43 39.8 °F 22.2 °F 30.29 in NNE 3.2 mph 4.6 mph 49 % 0.00 in
10:48 40.1 °F 22.4 °F 30.29 in NE 1.9 mph 3.5 mph 49 % 0.00 in
10:53 40.1 °F 22.0 °F 30.29 in NNE 1.8 mph 5.8 mph 48 % 0.00 in
10:58 40.1 °F 22.4 °F 30.29 in NE 1.0 mph 2.3 mph 49 % 0.00 in
11:03 40.2 °F 23.0 °F 30.29 in NNW 2.4 mph 3.5 mph 50 % 0.00 in
11:08 40.3 °F 23.1 °F 30.29 in NNE 1.9 mph 3.5 mph 50 % 0.00 in
11:13 40.7 °F 23.0 °F 30.29 in North 1.7 mph 4.0 mph 49 % 0.00 in
11:19 41.1 °F 22.9 °F 30.29 in NE 1.7 mph 3.5 mph 48 % 0.00 in
11:24 41.3 °F 24.0 °F 30.29 in ENE 3.0 mph 6.0 mph 50 % 0.00 in
11:29 41.5 °F 22.7 °F 30.28 in North 2.2 mph 4.6 mph 47 % 0.00 in
11:34 42.0 °F 22.7 °F 30.28 in NNW 4.3 mph 5.8 mph 46 % 0.00 in
11:39 42.1 °F 23.3 °F 30.28 in North 2.3 mph 3.5 mph 47 % 0.00 in
11:44 42.7 °F 24.4 °F 30.28 in NNE 1.5 mph 5.0 mph 48 % 0.00 in
11:49 42.8 °F 23.4 °F 30.28 in NNW 3.0 mph 5.8 mph 46 % 0.00 in
11:54 43.3 °F 25.4 °F 30.28 in NNE 1.7 mph 4.6 mph 49 % 0.00 in
11:59 43.8 °F 26.3 °F 30.27 in WNW 2.1 mph 3.5 mph 50 % 0.00 in
12:04 44.5 °F 27.5 °F 30.27 in NNE 3.0 mph 3.5 mph 51 % 0.00 in
12:10 44.6 °F 25.1 °F 30.27 in North 3.4 mph 5.0 mph 46 % 0.00 in
12:15 44.7 °F 25.7 °F 30.27 in NE 1.0 mph 3.5 mph 47 % 0.00 in
12:20 44.9 °F 25.3 °F 30.27 in North 1.9 mph 5.0 mph 46 % 0.00 in
12:25 44.7 °F 24.6 °F 30.26 in NW 2.2 mph 3.5 mph 45 % 0.00 in
12:30 44.7 °F 24.6 °F 30.26 in NW 1.8 mph 3.5 mph 45 % 0.00 in
12:35 44.6 °F 23.5 °F 30.26 in WNW 0.7 mph 3.5 mph 43 % 0.00 in
12:40 44.5 °F 23.4 °F 30.26 in WNW 3.5 mph 4.6 mph 43 % 0.00 in
12:45 44.3 °F 24.8 °F 30.26 in NNE 1.8 mph 3.5 mph 46 % 0.00 in
12:50 44.6 °F 25.1 °F 30.26 in NNE 1.3 mph 4.6 mph 46 % 0.00 in
12:55 44.9 °F 23.7 °F 30.26 in West 2.4 mph 6.9 mph 43 % 0.00 in
13:01 44.8 °F 24.7 °F 30.25 in West 3.4 mph 10.4 mph 45 % 0.00 in
13:06 45.0 °F 25.4 °F 30.25 in NNW 2.6 mph 3.5 mph 46 % 0.00 in
13:11 45.1 °F 24.5 °F 30.25 in WNW 3.3 mph 5.0 mph 44 % 0.00 in
13:16 45.2 °F 25.6 °F 30.25 in North 0.1 mph 2.3 mph 46 % 0.00 in
13:21 45.5 °F 25.4 °F 30.25 in WNW 2.8 mph 4.6 mph 45 % 0.00 in
13:26 46.0 °F 26.9 °F 30.25 in North 1.0 mph 3.5 mph 47 % 0.00 in
13:31 46.2 °F 26.0 °F 30.24 in WNW 1.8 mph 3.5 mph 45 % 0.00 in
13:36 46.0 °F 25.3 °F 30.24 in NNE 2.9 mph 5.0 mph 44 % 0.00 in
13:41 46.1 °F 24.8 °F 30.24 in SW 1.3 mph 3.5 mph 43 % 0.00 in
13:46 46.3 °F 24.4 °F 30.24 in NNW 2.5 mph 4.6 mph 42 % 0.00 in
13:52 46.2 °F 24.3 °F 30.24 in WNW 1.2 mph 3.5 mph 42 % 0.00 in
13:57 46.2 °F 24.9 °F 30.24 in WSW 3.4 mph 6.9 mph 43 % 0.00 in
14:02 46.1 °F 23.7 °F 30.24 in SW 3.4 mph 6.9 mph 41 % 0.00 in
14:07 46.2 °F 23.8 °F 30.24 in WSW 4.5 mph 6.9 mph 41 % 0.00 in
14:12 46.2 °F 23.8 °F 30.24 in Calm   1.0 mph 41 % 0.00 in
14:17 46.3 °F 23.9 °F 30.24 in West 3.1 mph 5.0 mph 41 % 0.00 in
14:22 46.1 °F 24.3 °F 30.24 in WNW 3.1 mph 6.9 mph 42 % 0.00 in
14:27 45.9 °F 24.1 °F 30.24 in West 5.1 mph 6.0 mph 42 % 0.00 in
14:32 45.5 °F 23.7 °F 30.24 in WSW 2.3 mph 5.0 mph 42 % 0.00 in
14:37 45.4 °F 24.2 °F 30.24 in SW 5.4 mph 8.0 mph 43 % 0.00 in
14:43 45.2 °F 24.0 °F 30.24 in West 1.5 mph 2.3 mph 43 % 0.00 in
14:48 45.0 °F 23.3 °F 30.24 in WSW 4.0 mph 6.9 mph 42 % 0.00 in
14:53 44.8 °F 23.6 °F 30.24 in WSW 3.4 mph 8.1 mph 43 % 0.00 in
14:58 44.5 °F 23.4 °F 30.24 in SW 6.6 mph 9.2 mph 43 % 0.00 in
15:03 44.2 °F 23.6 °F 30.24 in West 2.3 mph 5.0 mph 44 % 0.00 in
15:08 44.0 °F 23.5 °F 30.24 in SW 6.3 mph 9.2 mph 44 % 0.00 in
15:13 43.9 °F 23.4 °F 30.23 in WSW 0.2 mph 3.5 mph 44 % 0.00 in
15:18 43.7 °F 23.2 °F 30.23 in West 4.1 mph 6.9 mph 44 % 0.00 in
15:23 43.5 °F 23.0 °F 30.23 in NW 3.3 mph 5.8 mph 44 % 0.00 in
15:28 43.3 °F 23.4 °F 30.23 in SW 3.2 mph 6.9 mph 45 % 0.00 in
15:34 43.2 °F 23.3 °F 30.23 in SW 2.9 mph 9.2 mph 45 % 0.00 in
15:39 43.1 °F 23.2 °F 30.23 in WSW 2.0 mph 5.8 mph 45 % 0.00 in
15:44 43.0 °F 23.1 °F 30.23 in SW 0.4 mph 1.2 mph 45 % 0.00 in
15:49 43.0 °F 23.1 °F 30.23 in SW 4.1 mph 5.8 mph 45 % 0.00 in
15:54 43.0 °F 23.1 °F 30.23 in West 1.0 mph 3.5 mph 45 % 0.00 in
15:59 42.9 °F 23.5 °F 30.23 in SW 2.5 mph 4.6 mph 46 % 0.00 in
16:04 42.9 °F 23.0 °F 30.23 in SSW 3.4 mph 5.8 mph 45 % 0.00 in
16:09 42.9 °F 23.0 °F 30.23 in SW 1.3 mph 3.5 mph 45 % 0.00 in
16:14 42.8 °F 22.4 °F 30.23 in SW 5.0 mph 9.2 mph 44 % 0.00 in
16:19 42.8 °F 22.4 °F 30.23 in SW 2.2 mph 6.9 mph 44 % 0.00 in
16:25 42.8 °F 22.4 °F 30.23 in SW 4.7 mph 8.0 mph 44 % 0.00 in
16:30 42.7 °F 21.7 °F 30.23 in WSW 2.8 mph 5.8 mph 43 % 0.00 in
16:35 42.6 °F 22.2 °F 30.23 in WNW 2.8 mph 5.8 mph 44 % 0.00 in
16:40 42.6 °F 22.7 °F 30.23 in South 2.0 mph 5.8 mph 45 % 0.00 in
16:45 42.6 °F 22.2 °F 30.23 in WSW 1.8 mph 3.5 mph 44 % 0.00 in
16:50 42.5 °F 22.1 °F 30.23 in WSW 1.8 mph 3.5 mph 44 % 0.00 in
16:55 42.5 °F 22.1 °F 30.23 in SW 1.9 mph 4.0 mph 44 % 0.00 in
17:00 42.4 °F 22.5 °F 30.23 in SW 1.8 mph 4.6 mph 45 % 0.00 in
17:05 42.4 °F 22.5 °F 30.23 in SW 0.7 mph 3.5 mph 45 % 0.00 in
17:10 42.3 °F 22.4 °F 30.23 in SW 0.1 mph 1.0 mph 45 % 0.00 in
17:21 42.1 °F 22.8 °F 30.23 in SW 3.0 mph 5.8 mph 46 % 0.00 in
17:26 42.0 °F 23.2 °F 30.23 in SW 2.8 mph 4.0 mph 47 % 0.00 in
17:31 41.8 °F 22.5 °F 30.23 in SW 1.0 mph 2.3 mph 46 % 0.00 in
17:36 41.7 °F 22.4 °F 30.24 in SSW 1.0 mph 3.5 mph 46 % 0.00 in
17:41 41.6 °F 22.3 °F 30.24 in SW 2.2 mph 4.0 mph 46 % 0.00 in
17:46 41.4 °F 22.7 °F 30.24 in WSW 0.4 mph 2.0 mph 47 % 0.00 in
17:51 41.3 °F 22.6 °F 30.24 in Calm   1.2 mph 47 % 0.00 in
17:56 41.1 °F 22.9 °F 30.23 in WSW 0.1 mph 1.2 mph 48 % 0.00 in
18:01 40.9 °F 22.7 °F 30.24 in Calm     48 % 0.00 in
18:07 40.7 °F 22.5 °F 30.24 in Calm     48 % 0.00 in
18:12 40.5 °F 22.8 °F 30.25 in Calm     49 % 0.00 in
18:17 40.3 °F 22.6 °F 30.25 in Calm     49 % 0.00 in
18:22 40.0 °F 22.8 °F 30.25 in Calm     50 % 0.00 in
18:27 39.7 °F 23.0 °F 30.25 in Calm     51 % 0.00 in
18:32 39.4 °F 22.8 °F 30.25 in Calm     51 % 0.00 in
18:37 39.1 °F 23.4 °F 30.25 in Calm     53 % 0.00 in
18:42 38.7 °F 23.5 °F 30.25 in Calm     54 % 0.00 in
18:47 38.3 °F 23.5 °F 30.25 in Calm     55 % 0.00 in
18:52 37.9 °F 23.2 °F 30.25 in Calm     55 % 0.00 in
18:58 37.6 °F 23.3 °F 30.25 in Calm     56 % 0.00 in
19:03 37.2 °F 22.9 °F 30.25 in Calm     56 % 0.00 in
19:08 36.8 °F 23.0 °F 30.26 in WSW 0.5 mph 1.2 mph 57 % 0.00 in
19:13 36.5 °F 23.1 °F 30.26 in WSW 0.5 mph 2.3 mph 58 % 0.00 in
19:18 36.2 °F 22.8 °F 30.26 in WSW 0.1 mph 1.2 mph 58 % 0.00 in
19:23 35.9 °F 22.5 °F 30.26 in WSW 0.2 mph 1.2 mph 58 % 0.00 in
19:28 35.7 °F 22.8 °F 30.26 in Calm   1.2 mph 59 % 0.00 in
19:33 35.5 °F 23.0 °F 30.26 in WSW 0.5 mph 2.3 mph 60 % 0.00 in
19:38 35.2 °F 22.7 °F 30.26 in WSW 1.1 mph 2.3 mph 60 % 0.00 in
19:43 35.1 °F 23.0 °F 30.26 in SW 2.2 mph 3.5 mph 61 % 0.00 in
19:48 35.0 °F 22.9 °F 30.26 in SW 0.4 mph 2.3 mph 61 % 0.00 in
19:54 34.8 °F 23.1 °F 30.26 in SW 1.6 mph 3.5 mph 62 % 0.00 in
20:04 34.5 °F 23.6 °F 30.27 in SW 1.0 mph 2.3 mph 64 % 0.00 in
20:09 34.4 °F 23.8 °F 30.27 in SW 1.6 mph 2.3 mph 65 % 0.00 in
20:14 34.3 °F 24.1 °F 30.27 in SW 1.1 mph 2.3 mph 66 % 0.00 in
20:19 34.3 °F 24.1 °F 30.27 in SW 1.8 mph 3.5 mph 66 % 0.00 in
20:24 34.2 °F 24.4 °F 30.27 in SW 1.8 mph 3.5 mph 67 % 0.00 in
20:29 34.1 °F 24.3 °F 30.27 in SW 2.2 mph 3.5 mph 67 % 0.00 in
20:34 34.1 °F 24.6 °F 30.27 in SW 1.6 mph 2.3 mph 68 % 0.00 in
20:39 34.0 °F 24.5 °F 30.27 in SW 1.5 mph 3.5 mph 68 % 0.00 in
20:45 33.9 °F 24.4 °F 30.27 in SW 1.1 mph 2.3 mph 68 % 0.00 in
20:50 33.9 °F 24.4 °F 30.28 in SW 1.3 mph 2.0 mph 68 % 0.00 in
20:55 33.8 °F 24.7 °F 30.28 in SW 0.8 mph 1.2 mph 69 % 0.00 in
21:00 33.7 °F 24.6 °F 30.28 in SW 1.4 mph 3.5 mph 69 % 0.00 in
21:05 33.5 °F 24.4 °F 30.28 in SW 0.7 mph 1.2 mph 69 % 0.00 in
21:10 33.5 °F 24.8 °F 30.29 in SW 0.9 mph 2.3 mph 70 % 0.00 in
21:15 33.4 °F 24.7 °F 30.28 in SW 0.8 mph 2.3 mph 70 % 0.00 in
21:20 33.3 °F 24.9 °F 30.28 in SW 0.3 mph 1.2 mph 71 % 0.00 in
21:25 33.2 °F 24.8 °F 30.28 in SW 0.4 mph 2.3 mph 71 % 0.00 in
21:30 33.2 °F 24.8 °F 30.28 in Calm     71 % 0.00 in
21:36 33.1 °F 25.1 °F 30.28 in Calm     72 % 0.00 in
21:41 33.0 °F 25.0 °F 30.28 in Calm   1.2 mph 72 % 0.00 in
21:46 33.0 °F 25.0 °F 30.28 in Calm     72 % 0.00 in
21:51 33.0 °F 25.3 °F 30.28 in SW 1.5 mph 3.5 mph 73 % 0.00 in
21:56 33.0 °F 25.3 °F 30.28 in SW 1.5 mph 2.3 mph 73 % 0.00 in
22:01 33.0 °F 25.6 °F 30.28 in SW 0.9 mph 2.3 mph 74 % 0.00 in
22:06 33.0 °F 25.6 °F 30.28 in SW 1.4 mph 3.5 mph 74 % 0.00 in
22:11 33.0 °F 26.3 °F 30.28 in SSW 1.5 mph 3.5 mph 76 % 0.00 in
22:16 33.1 °F 26.7 °F 30.28 in SW 2.2 mph 4.0 mph 77 % 0.00 in
22:21 33.2 °F 26.8 °F 30.28 in SSW 2.1 mph 8.1 mph 77 % 0.00 in
22:27 33.3 °F 27.2 °F 30.28 in South 2.2 mph 3.5 mph 78 % 0.00 in
22:32 33.5 °F 27.4 °F 30.28 in SSW 2.1 mph 4.6 mph 78 % 0.00 in
22:37 33.5 °F 27.4 °F 30.28 in SSW 1.3 mph 3.5 mph 78 % 0.00 in
22:42 33.6 °F 27.5 °F 30.28 in SW 1.5 mph 3.5 mph 78 % 0.00 in
22:47 33.7 °F 27.6 °F 30.28 in SSW 1.2 mph 3.5 mph 78 % 0.00 in
22:52 33.8 °F 27.7 °F 30.28 in SW 2.3 mph 3.5 mph 78 % 0.00 in
22:57 33.9 °F 27.8 °F 30.28 in SW 2.6 mph 4.0 mph 78 % 0.00 in
23:02 33.9 °F 27.8 °F 30.28 in SW 3.4 mph 4.6 mph 78 % 0.00 in
23:07 34.1 °F 28.0 °F 30.28 in SSW 0.9 mph 3.5 mph 78 % 0.00 in
23:12 34.1 °F 28.0 °F 30.27 in South 0.7 mph 3.5 mph 78 % 0.00 in
23:23 34.2 °F 28.1 °F 30.27 in SSW 2.8 mph 4.6 mph 78 % 0.00 in
23:28 34.3 °F 28.2 °F 30.26 in South 2.4 mph 3.5 mph 78 % 0.00 in
23:33 34.3 °F 28.2 °F 30.26 in South 2.0 mph 3.5 mph 78 % 0.00 in
23:38 34.4 °F 28.6 °F 30.27 in SSW 4.3 mph 9.2 mph 79 % 0.00 in
23:43 34.4 °F 28.6 °F 30.27 in SSW 3.1 mph 4.6 mph 79 % 0.00 in
23:48 34.6 °F 29.1 °F 30.27 in SW 4.2 mph 6.9 mph 80 % 0.00 in
23:53 34.7 °F 29.2 °F 30.27 in SSW 4.3 mph 6.9 mph 80 % 0.00 in
23:58 34.8 °F 29.3 °F 30.27 in SW 1.6 mph 3.5 mph 80 % 0.00 in
Crab Meadow Weather
Compliments of Weather Underground - 2.75 mb

Script developed by  Jim McMurry - jmcmurry@mwt.net Adapted for the template by  Wim van der Kuil - Leuven-Template.eu

Extremes: Alaska and Hawaii have the same heat record. In Pahala, Hawaii the temperature on April 27, 1931 was 100 degrees F. Alaska's state heat record is also 100 degrees F. on June 27, 1915 at Fort Yukon.